McKinney's Hourly Summary for Friday, May 11, 2018
Hour Temp
(f)
RH
(%)
Solar Rad.
(MJ/m2)
Rainfall
(in)
Wind
(mph)
5/11/2018 12:00 AM 73 61 0 0 6.58
5/11/2018 1:00 AM 73 61 0 0 8.21
5/11/2018 2:00 AM 72 65 0 0 9
5/11/2018 3:00 AM 71 68 0 0 9.64
5/11/2018 4:00 AM 70 72 0 0 9.25
5/11/2018 5:00 AM 69 76 0 0 9.1
5/11/2018 6:00 AM 68 80 0 0 8.49
5/11/2018 7:00 AM 68 85 0.03 0 8.5
5/11/2018 8:00 AM 69 84 0.38 0 8.41
5/11/2018 9:00 AM 70 77 0.67 0 9.55
5/11/2018 10:00 AM 73 67 1.46 0 12
5/11/2018 11:00 AM 76 61 2.52 0 13.85
5/11/2018 12:00 PM 79 57 2.36 0 12.85
5/11/2018 1:00 PM 81 51 2.71 0 12.48
5/11/2018 2:00 PM 82 50 2.14 0 11.56
5/11/2018 3:00 PM 83 47 2.59 0 11.67
5/11/2018 4:00 PM 85 47 2.56 0 12.37
5/11/2018 5:00 PM 85 45 2.01 0 12.66
5/11/2018 6:00 PM 85 45 1.42 0 13.14
5/11/2018 7:00 PM 84 45 0.81 0 11.74
5/11/2018 8:00 PM 82 49 0.22 0 11
5/11/2018 9:00 PM 80 52 0.01 0 7.84
5/11/2018 10:00 PM 78 55 0 0 7.1
5/11/2018 11:00 PM 76 60 0 0 6.92
Data Summary 76 60 21.89 0.00 10.16